Time;durP1;ratioP1;P1;durP2;ratioP2;P2;SDS_P1;SDS_P2;PMS_P1;PMS_P2;Temp;Humidity;BMP_temperature;BMP_pressure;BME280_temperature;BME280_humidity;BME280_pressure;Samples;Min_cycle;Max_cycle;Signal;HPM_P1;HPM_P2
2021/09/26 00:00:30;;;;;;;5.10;4.60;;;12.20;99.90;;;;;;6244047;28;20245;-76
2021/09/26 00:03:33;;;;;;;5.00;4.50;;;12.20;99.90;;;;;;6195720;28;20218;-77
2021/09/26 00:06:35;;;;;;;5.03;4.57;;;12.10;99.90;;;;;;6196467;28;20199;-78
2021/09/26 00:09:37;;;;;;;5.47;4.97;;;12.10;99.90;;;;;;6197085;28;20191;-76
2021/09/26 00:12:40;;;;;;;5.70;5.20;;;12.10;99.90;;;;;;6211974;28;20186;-78
2021/09/26 00:15:42;;;;;;;6.37;4.30;;;12.00;99.90;;;;;;6210364;28;20196;-77
2021/09/26 00:18:45;;;;;;;5.57;4.70;;;12.00;99.90;;;;;;6210411;28;20207;-77
2021/09/26 00:21:47;;;;;;;5.00;4.53;;;12.00;99.90;;;;;;6186042;28;20199;-77
2021/09/26 00:24:49;;;;;;;4.47;4.07;;;12.00;99.90;;;;;;6184627;28;20699;-77
2021/09/26 00:27:52;;;;;;;4.40;4.00;;;12.00;99.90;;;;;;6197671;28;20279;-76
2021/09/26 00:30:55;;;;;;;4.80;4.40;;;11.90;99.90;;;;;;6199364;28;20295;-77
2021/09/26 00:33:57;;;;;;;6.07;4.43;;;11.90;99.90;;;;;;6184865;28;20198;-78
2021/09/26 00:37:00;;;;;;;5.00;4.07;;;11.90;99.90;;;;;;6195522;28;20273;-78
2021/09/26 00:40:04;;;;;;;5.57;4.30;;;11.90;99.90;;;;;;6211617;28;20199;-78
2021/09/26 00:43:07;;;;;;;4.60;4.20;;;11.90;99.90;;;;;;6211610;28;20279;-76
2021/09/26 00:46:10;;;;;;;4.73;3.97;;;11.80;99.90;;;;;;6195035;28;20222;-77
2021/09/26 00:49:13;;;;;;;4.80;4.13;;;11.80;99.90;;;;;;6196197;28;20200;-77
2021/09/26 00:52:18;;;;;;;5.63;4.60;;;11.80;99.90;;;;;;6203579;28;20525;-77
2021/09/26 00:55:20;;;;;;;6.00;4.47;;;11.80;99.90;;;;;;6204976;28;20207;-77
2021/09/26 00:58:25;;;;;;;5.20;4.80;;;11.70;99.90;;;;;;6211472;28;20343;-77
2021/09/26 01:01:27;;;;;;;5.33;4.87;;;11.60;99.90;;;;;;6211267;28;20266;-77
2021/09/26 01:04:31;;;;;;;5.83;5.23;;;11.60;99.90;;;;;;6242553;28;20212;-78
2021/09/26 01:07:43;;;;;;;6.20;5.60;;;11.60;99.90;;;;;;6243797;28;20202;-78
2021/09/26 01:10:57;;;;;;;5.23;4.67;;;11.60;99.90;;;;;;6213093;28;20653;-78
2021/09/26 01:14:21;;;;;;;4.70;4.30;;;11.50;99.90;;;;;;6248763;28;20308;-78
2021/09/26 01:17:30;;;;;;;7.00;4.87;;;11.50;99.90;;;;;;6225160;28;20575;-78
2021/09/26 01:20:58;;;;;;;5.33;4.83;;;11.50;99.90;;;;;;6248799;28;20332;-78
2021/09/26 01:24:17;;;;;;;5.53;5.03;;;11.50;99.90;;;;;;6231724;28;20271;-78
2021/09/26 01:27:47;;;;;;;6.93;4.57;;;11.50;99.90;;;;;;6230196;28;20237;-78
2021/09/26 01:30:58;;;;;;;5.60;4.60;;;11.50;99.90;;;;;;6247828;28;20474;-77
2021/09/26 01:34:15;;;;;;;5.60;4.40;;;11.50;99.90;;;;;;6232322;28;20200;-78
2021/09/26 01:37:33;;;;;;;5.90;4.57;;;11.50;99.90;;;;;;6231949;28;20312;-79
2021/09/26 01:41:02;;;;;;;4.90;4.43;;;11.40;99.90;;;;;;6231697;28;20198;-79
2021/09/26 01:44:13;;;;;;;6.50;4.83;;;11.40;99.90;;;;;;6223286;28;20690;-77
2021/09/26 01:47:20;;;;;;;5.70;5.20;;;11.40;99.90;;;;;;6242790;28;20194;-77
2021/09/26 01:50:24;;;;;;;6.00;4.73;;;11.40;99.90;;;;;;6223580;28;20199;-78
2021/09/26 01:53:28;;;;;;;5.93;5.07;;;11.40;99.90;;;;;;6243918;28;20206;-77
2021/09/26 01:56:31;;;;;;;5.47;4.97;;;11.40;99.90;;;;;;6231545;28;20208;-77
2021/09/26 01:59:35;;;;;;;5.73;5.23;;;11.30;99.90;;;;;;6247150;28;20218;-77
2021/09/26 02:02:39;;;;;;;6.10;5.50;;;11.30;99.90;;;;;;6223195;28;20226;-78
2021/09/26 02:05:43;;;;;;;7.37;4.87;;;11.30;99.90;;;;;;6222921;28;20262;-78
2021/09/26 02:08:46;;;;;;;6.47;4.87;;;11.30;99.90;;;;;;6223269;28;20185;-77
2021/09/26 02:11:50;;;;;;;5.47;4.90;;;11.30;99.90;;;;;;6222926;28;20202;-78
2021/09/26 02:14:53;;;;;;;7.53;5.17;;;11.30;99.90;;;;;;6222939;28;20264;-78
2021/09/26 02:17:56;;;;;;;5.50;5.00;;;11.30;99.90;;;;;;6224340;28;20191;-77
2021/09/26 02:20:59;;;;;;;5.43;4.93;;;11.30;99.90;;;;;;6222915;28;20895;-78
2021/09/26 02:24:03;;;;;;;5.40;4.87;;;11.30;99.90;;;;;;6222182;28;20333;-78
2021/09/26 02:27:06;;;;;;;5.60;5.00;;;11.30;99.90;;;;;;6224130;28;20203;-77
2021/09/26 02:30:10;;;;;;;5.40;4.90;;;11.30;99.90;;;;;;6238723;28;20185;-78
2021/09/26 02:33:12;;;;;;;5.00;4.40;;;11.30;99.90;;;;;;6222632;28;20770;-77
2021/09/26 02:36:16;;;;;;;7.07;4.80;;;11.20;99.90;;;;;;6222711;28;20202;-76
2021/09/26 02:39:19;;;;;;;5.33;4.83;;;11.30;99.90;;;;;;6214575;28;20213;-76
2021/09/26 02:42:40;;;;;;;8.67;5.10;;;11.20;99.90;;;;;;6218144;28;20222;-76
2021/09/26 02:45:46;;;;;;;8.00;5.07;;;11.20;99.90;;;;;;6206219;28;20210;-78
2021/09/26 02:48:50;;;;;;;5.40;4.90;;;11.20;99.90;;;;;;6222498;28;20196;-76
2021/09/26 02:51:53;;;;;;;4.93;4.53;;;11.20;99.90;;;;;;6222114;28;20181;-76
2021/09/26 02:54:57;;;;;;;7.73;5.53;;;11.20;99.90;;;;;;6205968;28;20216;-77
2021/09/26 02:58:00;;;;;;;6.43;5.37;;;11.20;99.90;;;;;;6205667;28;20205;-77
2021/09/26 03:01:02;;;;;;;6.03;4.93;;;11.20;99.90;;;;;;6227367;28;20544;-77
2021/09/26 03:04:05;;;;;;;6.07;5.47;;;11.10;99.90;;;;;;6246465;28;20216;-78
2021/09/26 03:07:07;;;;;;;7.80;5.37;;;11.10;99.90;;;;;;6246257;28;20197;-77
2021/09/26 03:10:10;;;;;;;6.27;5.50;;;11.10;99.90;;;;;;6246166;28;20724;-77
2021/09/26 03:13:12;;;;;;;6.80;6.10;;;11.00;99.90;;;;;;6229873;28;20490;-77
2021/09/26 03:16:14;;;;;;;7.03;5.13;;;11.00;99.90;;;;;;6247137;28;20238;-78
2021/09/26 03:19:17;;;;;;;8.30;5.80;;;11.00;99.90;;;;;;6245942;28;20198;-76
2021/09/26 03:22:19;;;;;;;6.17;5.53;;;11.00;99.90;;;;;;6229438;28;20215;-77
2021/09/26 03:25:24;;;;;;;7.87;5.70;;;11.00;99.90;;;;;;6228167;28;20233;-77
2021/09/26 03:28:26;;;;;;;7.87;6.00;;;10.90;99.90;;;;;;6229211;28;20620;-77
2021/09/26 03:31:29;;;;;;;6.70;5.97;;;10.90;99.90;;;;;;6222651;28;20194;-76
2021/09/26 03:34:31;;;;;;;6.53;5.77;;;10.90;99.90;;;;;;6244497;28;20196;-78
2021/09/26 03:37:34;;;;;;;5.93;5.37;;;10.90;99.90;;;;;;6229077;28;20744;-77
2021/09/26 03:40:36;;;;;;;7.57;6.00;;;10.90;99.90;;;;;;6245475;28;20242;-77
2021/09/26 03:43:39;;;;;;;6.47;5.87;;;10.90;99.90;;;;;;6245480;28;20193;-77
2021/09/26 03:46:41;;;;;;;6.40;5.77;;;10.90;99.90;;;;;;6245345;28;20213;-77
2021/09/26 03:49:43;;;;;;;7.27;6.53;;;10.90;99.90;;;;;;6244507;28;20200;-77
2021/09/26 03:52:45;;;;;;;7.90;6.57;;;10.90;99.90;;;;;;6245327;28;20184;-78
2021/09/26 03:55:48;;;;;;;7.03;6.33;;;10.90;99.90;;;;;;6229213;28;20197;-79
2021/09/26 03:58:50;;;;;;;8.23;6.30;;;10.80;99.90;;;;;;6228533;28;20200;-78
2021/09/26 04:01:52;;;;;;;9.13;7.37;;;10.80;99.90;;;;;;6245601;28;20246;-78
2021/09/26 04:04:55;;;;;;;7.33;6.63;;;10.80;99.90;;;;;;6244747;28;20285;-78
2021/09/26 04:07:57;;;;;;;9.47;8.47;;;10.70;99.90;;;;;;6228508;28;20287;-78
2021/09/26 04:10:59;;;;;;;8.50;6.73;;;10.80;99.90;;;;;;6228559;28;20203;-78
2021/09/26 04:14:02;;;;;;;6.90;6.20;;;10.70;99.90;;;;;;6244787;28;20192;-78
2021/09/26 04:17:04;;;;;;;7.23;6.53;;;10.70;99.90;;;;;;6227037;28;20199;-78
2021/09/26 04:20:08;;;;;;;8.33;6.60;;;10.70;99.90;;;;;;6244029;28;20232;-79
2021/09/26 04:23:10;;;;;;;7.17;6.40;;;10.70;99.90;;;;;;6228440;28;20193;-78
2021/09/26 04:26:13;;;;;;;8.27;6.90;;;10.70;99.90;;;;;;6211644;28;20212;-78
2021/09/26 04:29:16;;;;;;;7.33;6.60;;;10.70;99.90;;;;;;6244352;28;20196;-77
2021/09/26 04:32:19;;;;;;;7.07;6.37;;;10.70;99.90;;;;;;6235546;28;20250;-77
2021/09/26 04:35:21;;;;;;;7.37;6.47;;;10.70;99.90;;;;;;6236448;28;20235;-77
2021/09/26 04:38:23;;;;;;;7.30;6.60;;;10.70;99.90;;;;;;6244047;28;20295;-77
2021/09/26 04:41:26;;;;;;;7.47;6.40;;;10.70;99.90;;;;;;6227863;28;20643;-77
2021/09/26 04:44:28;;;;;;;7.03;6.33;;;10.70;99.90;;;;;;6245081;28;20207;-78
2021/09/26 04:47:30;;;;;;;7.20;6.50;;;10.70;99.90;;;;;;6243873;28;20216;-77
2021/09/26 04:50:33;;;;;;;7.10;6.40;;;10.80;99.90;;;;;;6243321;28;20274;-78
2021/09/26 04:53:36;;;;;;;9.27;6.80;;;10.80;99.90;;;;;;6218420;28;20206;-78
2021/09/26 04:56:38;;;;;;;8.60;7.40;;;10.90;99.90;;;;;;6238289;28;20719;-78
2021/09/26 04:59:40;;;;;;;8.33;7.50;;;10.90;99.90;;;;;;6245878;28;20226;-79
2021/09/26 05:02:43;;;;;;;8.57;7.70;;;11.00;99.90;;;;;;6223668;28;20245;-78
2021/09/26 05:05:46;;;;;;;10.93;7.50;;;11.10;99.90;;;;;;6227260;28;20209;-78
2021/09/26 05:08:48;;;;;;;8.13;7.17;;;11.20;99.90;;;;;;6243848;28;20192;-78
2021/09/26 05:11:52;;;;;;;8.47;7.50;;;11.30;99.90;;;;;;6243430;28;20348;-79
2021/09/26 05:14:56;;;;;;;9.80;8.80;;;11.40;99.90;;;;;;6243741;28;20749;-79
2021/09/26 05:17:59;;;;;;;9.53;7.97;;;11.50;99.90;;;;;;6234973;28;20207;-78
2021/09/26 05:21:01;;;;;;;8.77;7.87;;;11.60;99.90;;;;;;6222524;28;20228;-79
2021/09/26 05:24:04;;;;;;;8.47;7.57;;;11.70;99.90;;;;;;6243328;28;20205;-79
2021/09/26 05:27:07;;;;;;;9.60;8.23;;;11.80;99.90;;;;;;6210480;28;20224;-78
2021/09/26 05:30:12;;;;;;;8.30;7.60;;;11.90;99.90;;;;;;6229528;28;20284;-78
2021/09/26 05:33:15;;;;;;;9.70;8.77;;;12.00;99.90;;;;;;6210896;28;20198;-77
2021/09/26 05:36:17;;;;;;;10.83;9.73;;;12.10;99.90;;;;;;6244394;28;20195;-78
2021/09/26 05:39:21;;;;;;;9.40;8.50;;;12.20;99.90;;;;;;6226283;28;20199;-79
2021/09/26 05:42:24;;;;;;;10.50;9.33;;;12.30;99.90;;;;;;6242643;28;20720;-79
2021/09/26 05:45:26;;;;;;;9.70;8.70;;;12.40;99.90;;;;;;6218204;28;20296;-79
2021/09/26 05:48:29;;;;;;;8.90;7.93;;;12.50;99.90;;;;;;6229796;28;20205;-79
2021/09/26 05:51:31;;;;;;;10.60;7.87;;;12.60;99.90;;;;;;6218440;28;20330;-78
2021/09/26 05:54:35;;;;;;;10.27;9.27;;;12.60;99.90;;;;;;6218296;28;20574;-77
2021/09/26 05:57:38;;;;;;;11.33;10.17;;;12.70;99.90;;;;;;6229916;28;20216;-76
2021/09/26 06:00:41;;;;;;;11.10;9.10;;;12.80;99.90;;;;;;6240389;28;20301;-78
2021/09/26 06:03:43;;;;;;;9.83;8.83;;;12.90;99.90;;;;;;6247121;28;20187;-78
2021/09/26 06:06:46;;;;;;;8.37;7.53;;;13.00;99.90;;;;;;6231094;28;20651;-77
2021/09/26 06:09:48;;;;;;;8.50;7.70;;;13.10;99.90;;;;;;6230939;28;20245;-77
2021/09/26 06:12:50;;;;;;;12.00;10.77;;;13.20;99.90;;;;;;6230697;28;20206;-78
2021/09/26 06:15:53;;;;;;;13.03;11.50;;;13.20;99.90;;;;;;6230256;28;20196;-78
2021/09/26 06:18:55;;;;;;;14.57;13.00;;;13.30;99.90;;;;;;6230433;28;20202;-78
2021/09/26 06:21:57;;;;;;;20.97;15.50;;;13.40;99.90;;;;;;6230797;28;20738;-78
2021/09/26 06:25:00;;;;;;;15.37;12.57;;;13.50;99.90;;;;;;6246632;28;20222;-77
2021/09/26 06:28:03;;;;;;;18.67;16.13;;;13.70;99.90;;;;;;6230226;28;20289;-77
2021/09/26 06:31:05;;;;;;;32.03;26.47;;;13.80;99.90;;;;;;6243892;28;20196;-78
2021/09/26 06:34:07;;;;;;;33.13;26.97;;;13.90;99.90;;;;;;6230275;28;20602;-77
2021/09/26 06:37:10;;;;;;;34.40;26.37;;;13.90;99.90;;;;;;6229636;28;20222;-78
2021/09/26 06:40:12;;;;;;;42.50;31.77;;;14.00;99.90;;;;;;6229151;28;20198;-79
2021/09/26 06:43:15;;;;;;;36.47;30.23;;;14.10;99.90;;;;;;6229455;28;20221;-76
2021/09/26 06:46:18;;;;;;;31.83;26.33;;;14.20;99.90;;;;;;6245245;28;20219;-79
2021/09/26 06:49:21;;;;;;;26.67;23.10;;;14.20;99.90;;;;;;6213146;28;20208;-77
2021/09/26 06:52:23;;;;;;;29.70;24.63;;;14.40;99.90;;;;;;6228443;28;20193;-78
2021/09/26 06:55:25;;;;;;;18.00;16.10;;;14.50;99.90;;;;;;6229837;28;20200;-80
2021/09/26 06:58:27;;;;;;;22.07;19.07;;;14.60;99.90;;;;;;6229444;28;20833;-78
2021/09/26 07:01:32;;;;;;;24.00;20.07;;;14.70;99.90;;;;;;6222608;28;20229;-78
2021/09/26 07:04:35;;;;;;;23.67;20.17;;;14.80;99.90;;;;;;6245542;28;20281;-78
2021/09/26 07:07:38;;;;;;;26.60;22.20;;;14.90;99.90;;;;;;6228726;28;20215;-79
2021/09/26 07:10:40;;;;;;;29.33;24.53;;;14.80;99.90;;;;;;6229412;28;20219;-80
2021/09/26 07:13:42;;;;;;;27.70;24.40;;;14.80;99.90;;;;;;6246484;28;20191;-80
2021/09/26 07:16:48;;;;;;;35.77;26.43;;;14.80;99.90;;;;;;6246265;28;20676;-78
2021/09/26 07:19:54;;;;;;;29.40;24.43;;;14.80;99.90;;;;;;6245070;28;20196;-79
2021/09/26 07:23:01;;;;;;;28.87;22.80;;;14.80;99.90;;;;;;6228921;28;20218;-79
2021/09/26 07:26:03;;;;;;;28.20;23.53;;;14.70;99.90;;;;;;6243913;28;20212;-78
2021/09/26 07:29:06;;;;;;;30.00;24.77;;;14.80;99.90;;;;;;6245318;28;20778;-79
2021/09/26 07:32:08;;;;;;;28.77;23.73;;;14.70;99.90;;;;;;6220581;28;20196;-80
2021/09/26 07:35:11;;;;;;;28.97;24.70;;;14.80;99.90;;;;;;6220212;28;20199;-80
2021/09/26 07:38:13;;;;;;;31.57;24.57;;;14.90;99.90;;;;;;6204440;28;20579;-80
2021/09/26 07:41:16;;;;;;;30.67;24.90;;;15.00;99.90;;;;;;6244619;28;20246;-80
2021/09/26 07:44:18;;;;;;;30.53;23.20;;;15.00;99.90;;;;;;6228396;28;20639;-80
2021/09/26 07:47:20;;;;;;;28.60;23.97;;;15.10;99.90;;;;;;6227846;28;20208;-77
2021/09/26 07:50:25;;;;;;;31.47;23.63;;;15.30;99.90;;;;;;6227599;28;20594;-77
2021/09/26 07:53:27;;;;;;;26.90;23.43;;;15.40;99.90;;;;;;6243438;28;20192;-76
2021/09/26 07:56:29;;;;;;;28.67;22.67;;;15.50;99.90;;;;;;6207956;28;20199;-75
2021/09/26 07:59:32;;;;;;;24.13;20.10;;;15.70;99.90;;;;;;6228178;28;20220;-79
2021/09/26 08:02:34;;;;;;;25.77;19.93;;;15.80;99.90;;;;;;6244950;28;20236;-75
2021/09/26 08:05:36;;;;;;;26.00;21.10;;;16.00;99.90;;;;;;6245473;28;20211;-75
2021/09/26 08:08:39;;;;;;;23.87;20.37;;;16.20;99.90;;;;;;6245278;28;20671;-75
2021/09/26 08:11:42;;;;;;;19.53;16.83;;;16.50;99.90;;;;;;6227055;28;20267;-74
2021/09/26 08:14:44;;;;;;;18.87;15.17;;;16.70;99.90;;;;;;6224375;28;20184;-75
2021/09/26 08:17:46;;;;;;;17.80;15.90;;;17.10;99.90;;;;;;6226591;28;20287;-76
2021/09/26 08:20:49;;;;;;;18.00;14.73;;;17.30;99.90;;;;;;6244054;28;20192;-74
2021/09/26 08:23:51;;;;;;;18.03;15.67;;;17.60;99.90;;;;;;6242874;28;20211;-75
2021/09/26 08:26:54;;;;;;;16.63;14.37;;;17.80;99.90;;;;;;6244868;28;20722;-76
2021/09/26 08:29:57;;;;;;;18.30;14.67;;;18.10;99.90;;;;;;6244843;28;20192;-74
2021/09/26 08:32:59;;;;;;;17.47;13.47;;;18.30;99.90;;;;;;6244555;28;20195;-75
2021/09/26 08:36:02;;;;;;;17.57;13.50;;;18.60;99.90;;;;;;6241117;28;20679;-75
2021/09/26 08:39:04;;;;;;;16.83;12.87;;;18.80;99.90;;;;;;6225776;28;20187;-76
2021/09/26 08:42:06;;;;;;;14.67;13.17;;;19.00;99.90;;;;;;6242749;28;20204;-74
2021/09/26 08:45:14;;;;;;;14.30;12.60;;;19.30;99.90;;;;;;6245096;28;20254;-74
2021/09/26 08:48:16;;;;;;;15.00;13.43;;;19.50;99.90;;;;;;6245437;28;20556;-75
2021/09/26 08:51:18;;;;;;;16.23;13.33;;;19.80;99.90;;;;;;6228777;28;20691;-76
2021/09/26 08:54:21;;;;;;;14.73;13.23;;;20.00;99.90;;;;;;6236772;28;20200;-74
2021/09/26 08:57:24;;;;;;;13.07;11.57;;;20.20;99.90;;;;;;6235841;28;20191;-75
2021/09/26 09:00:27;;;;;;;13.93;11.77;;;20.40;99.90;;;;;;6246003;28;20718;-76
2021/09/26 09:03:29;;;;;;;11.63;10.43;;;20.60;99.90;;;;;;6246348;28;20220;-75
2021/09/26 09:06:45;;;;;;;12.23;10.50;;;20.90;99.90;;;;;;6245017;28;20568;-75
2021/09/26 09:09:52;;;;;;;11.27;10.13;;;21.20;99.90;;;;;;6226912;28;20196;-75
2021/09/26 09:12:54;;;;;;;10.70;9.60;;;21.40;99.90;;;;;;6244588;28;20692;-74
2021/09/26 09:15:59;;;;;;;13.63;12.23;;;21.60;99.90;;;;;;6244527;28;20196;-75
2021/09/26 09:19:02;;;;;;;10.50;9.43;;;21.70;99.90;;;;;;6218996;28;20628;-74
2021/09/26 09:22:08;;;;;;;12.63;10.67;;;21.70;99.90;;;;;;6239721;28;20192;-75
2021/09/26 09:25:33;;;;;;;11.17;10.07;;;21.90;99.90;;;;;;6244599;28;20565;-76
2021/09/26 09:28:39;;;;;;;9.43;8.47;;;22.00;99.90;;;;;;6210504;28;20231;-76
2021/09/26 09:31:51;;;;;;;13.07;11.77;;;22.40;99.90;;;;;;6246512;28;20274;-76
2021/09/26 09:34:54;;;;;;;12.87;11.70;;;22.60;99.80;;;;;;6249338;28;20192;-76
2021/09/26 09:37:56;;;;;;;13.87;11.33;;;22.70;99.40;;;;;;6248188;28;20207;-75
2021/09/26 09:40:59;;;;;;;11.03;10.00;;;22.80;98.20;;;;;;6229873;28;20742;-75
2021/09/26 09:44:02;;;;;;;9.20;8.30;;;22.80;98.90;;;;;;6247708;28;20564;-76
2021/09/26 09:47:04;;;;;;;9.67;8.77;;;23.10;98.90;;;;;;6231053;28;20207;-75
2021/09/26 09:50:07;;;;;;;9.90;8.90;;;23.30;98.30;;;;;;6247534;28;20218;-76
2021/09/26 09:53:26;;;;;;;11.27;10.23;;;23.30;98.10;;;;;;6248755;28;20667;-75
2021/09/26 09:56:41;;;;;;;11.77;10.50;;;23.40;96.70;;;;;;6249092;28;20268;-75
2021/09/26 09:59:45;;;;;;;8.80;7.90;;;23.30;96.00;;;;;;6248565;28;20263;-75
2021/09/26 10:02:47;;;;;;;10.50;9.50;;;23.40;97.10;;;;;;6248667;28;20365;-76
2021/09/26 10:05:50;;;;;;;9.73;8.77;;;23.60;96.50;;;;;;6248694;28;20216;-75
2021/09/26 10:08:54;;;;;;;11.07;9.70;;;23.70;95.70;;;;;;6248413;28;20202;-75
2021/09/26 10:12:04;;;;;;;13.40;10.37;;;23.80;94.00;;;;;;6248639;28;20188;-75
2021/09/26 10:15:09;;;;;;;9.60;8.67;;;23.60;93.40;;;;;;6246806;28;20271;-75
2021/09/26 10:18:11;;;;;;;8.70;7.80;;;23.70;94.00;;;;;;6248198;28;20236;-75
2021/09/26 10:21:14;;;;;;;10.33;8.83;;;23.90;92.90;;;;;;6248616;28;20554;-75
2021/09/26 10:24:19;;;;;;;9.33;8.43;;;24.00;92.20;;;;;;6230929;28;20294;-75
2021/09/26 10:27:23;;;;;;;9.50;8.53;;;23.90;92.00;;;;;;6248129;28;20200;-75
2021/09/26 10:30:26;;;;;;;8.07;7.10;;;24.20;93.10;;;;;;6246892;28;20208;-74
2021/09/26 10:33:28;;;;;;;6.40;5.80;;;24.50;92.60;;;;;;6242581;28;20193;-76
2021/09/26 10:36:32;;;;;;;14.70;8.00;;;24.80;93.10;;;;;;6243583;28;20210;-76
2021/09/26 10:39:35;;;;;;;11.23;10.18;;;25.20;92.50;;;;;;6241064;28;20561;-75
2021/09/26 10:42:38;;;;;;;6.57;5.93;;;25.10;89.00;;;;;;6227961;28;20226;-77
2021/09/26 10:45:40;;;;;;;11.63;10.43;;;24.90;89.70;;;;;;6243722;28;20195;-77
2021/09/26 10:49:03;;;;;;;9.88;8.50;;;24.70;88.50;;;;;;6244899;28;20192;-76
2021/09/26 10:52:34;;;;;;;9.93;8.70;;;24.40;88.50;;;;;;6221117;28;20197;-75
2021/09/26 10:55:38;;;;;;;8.88;7.88;;;24.30;88.50;;;;;;6220997;28;20217;-76
2021/09/26 10:58:56;;;;;;;10.73;9.53;;;24.10;90.50;;;;;;6242413;28;20188;-74
2021/09/26 11:01:58;;;;;;;7.77;6.97;;;24.00;89.90;;;;;;6246474;28;20634;-75
2021/09/26 11:05:06;;;;;;;14.30;9.67;;;24.30;91.00;;;;;;6245691;28;20188;-76
2021/09/26 11:08:28;;;;;;;8.33;7.53;;;24.60;89.10;;;;;;6228232;28;20240;-76
2021/09/26 11:11:33;;;;;;;9.27;8.27;;;24.30;90.10;;;;;;6199582;28;20220;-75
2021/09/26 11:15:02;;;;;;;8.53;7.63;;;24.30;88.90;;;;;;6228713;28;20287;-74
2021/09/26 11:18:04;;;;;;;7.50;6.80;;;24.50;86.40;;;;;;6246530;28;20188;-73
2021/09/26 11:21:06;;;;;;;10.68;9.38;;;24.40;87.40;;;;;;6245851;28;20216;-74
2021/09/26 11:24:21;;;;;;;9.88;8.50;;;24.50;86.70;;;;;;6243630;28;20195;-73
2021/09/26 11:27:32;;;;;;;10.10;9.03;;;24.30;87.40;;;;;;6244711;28;20193;-74
2021/09/26 11:30:38;;;;;;;10.40;8.70;;;24.40;87.80;;;;;;6254570;28;20189;-74
2021/09/26 11:34:00;;;;;;;10.33;9.30;;;24.20;87.00;;;;;;6246538;28;20177;-74
2021/09/26 11:37:03;;;;;;;10.10;9.07;;;24.00;88.00;;;;;;6246758;28;20200;-73
2021/09/26 11:40:13;;;;;;;9.33;8.43;;;23.90;87.80;;;;;;6245981;28;20202;-73
2021/09/26 11:43:22;;;;;;;8.63;7.73;;;23.90;89.70;;;;;;6246307;28;20204;-73
2021/09/26 11:46:26;;;;;;;8.43;7.67;;;24.20;90.70;;;;;;6245024;28;20244;-74
2021/09/26 11:49:30;;;;;;;8.63;6.40;;;24.70;89.20;;;;;;6228636;28;20188;-73
2021/09/26 11:52:38;;;;;;;10.35;9.27;;;25.20;90.00;;;;;;6245929;28;20606;-73
2021/09/26 11:55:42;;;;;;;10.13;9.05;;;25.60;86.70;;;;;;6227011;28;20213;-73
2021/09/26 11:58:45;;;;;;;9.30;8.40;;;25.60;83.60;;;;;;6244625;28;20191;-73
2021/09/26 12:01:48;;;;;;;9.07;8.27;;;25.70;83.30;;;;;;6244148;28;20228;-74
2021/09/26 12:04:51;;;;;;;8.70;7.88;;;25.80;84.90;;;;;;6241629;28;20208;-73
2021/09/26 12:07:56;;;;;;;8.75;7.95;;;25.70;83.00;;;;;;6223586;28;20240;-73
2021/09/26 12:11:09;;;;;;;7.22;6.43;;;25.70;82.80;;;;;;6240978;28;20240;-74
2021/09/26 12:14:20;;;;;;;8.43;7.60;;;25.80;83.80;;;;;;6243082;28;20307;-75
2021/09/26 12:17:25;;;;;;;7.75;7.00;;;25.70;81.40;;;;;;6236148;28;20694;-75
2021/09/26 12:20:27;;;;;;;10.23;8.95;;;25.70;81.50;;;;;;6244960;28;20275;-75
2021/09/26 12:23:58;;;;;;;10.00;8.93;;;25.90;79.50;;;;;;6243667;28;20203;-75
2021/09/26 12:27:22;;;;;;;8.85;8.05;;;25.50;80.50;;;;;;6225878;28;20298;-75
2021/09/26 12:30:40;;;;;;;7.38;6.68;;;25.20;80.80;;;;;;6247244;28;20192;-76
2021/09/26 12:33:45;;;;;;;7.07;6.07;;;25.30;82.40;;;;;;6241366;28;20189;-76
2021/09/26 12:36:48;;;;;;;9.50;8.52;;;25.70;84.50;;;;;;6222013;28;20275;-76
2021/09/26 12:39:54;;;;;;;8.38;7.50;;;25.90;81.60;;;;;;6238371;28;20196;-76
2021/09/26 12:42:59;;;;;;;8.43;7.40;;;26.00;80.80;;;;;;6240957;28;20176;-76
2021/09/26 12:46:07;;;;;;;9.25;8.02;;;26.10;81.00;;;;;;6220875;28;20389;-77
2021/09/26 12:49:14;;;;;;;8.82;7.93;;;26.10;78.90;;;;;;6229358;28;20220;-76
2021/09/26 12:52:23;;;;;;;8.13;7.32;;;25.90;79.90;;;;;;6236538;28;20188;-77
2021/09/26 12:55:31;;;;;;;9.63;6.80;;;26.10;78.10;;;;;;6216438;28;20299;-76
2021/09/26 12:58:47;;;;;;;7.45;6.75;;;26.20;78.20;;;;;;6232968;28;20541;-76
2021/09/26 13:02:11;;;;;;;9.55;7.95;;;26.30;77.50;;;;;;6244163;28;20617;-74
2021/09/26 13:05:28;;;;;;;10.15;7.68;;;26.70;74.50;;;;;;6241467;28;20342;-74
2021/09/26 13:08:37;;;;;;;6.95;6.10;;;27.00;75.20;;;;;;6244918;28;20216;-74
2021/09/26 13:11:41;;;;;;;7.20;6.50;;;27.50;73.70;;;;;;6244399;28;20189;-74
2021/09/26 13:14:44;;;;;;;6.68;6.07;;;27.90;71.80;;;;;;6246195;28;20180;-74
2021/09/26 13:17:49;;;;;;;7.15;5.75;;;28.20;69.90;;;;;;6245713;28;20192;-74
2021/09/26 13:21:27;;;;;;;9.25;7.60;;;28.40;69.50;;;;;;6242917;28;20168;-74
2021/09/26 13:24:30;;;;;;;7.28;6.50;;;28.60;67.50;;;;;;6245605;28;20196;-74
2021/09/26 13:27:54;;;;;;;9.07;5.93;;;28.40;69.10;;;;;;6246453;28;20318;-74
2021/09/26 13:31:01;;;;;;;7.20;6.57;;;28.60;67.90;;;;;;6225822;28;20337;-75
2021/09/26 13:34:10;;;;;;;7.78;7.07;;;28.70;66.00;;;;;;6226611;28;20432;-73
2021/09/26 13:37:19;;;;;;;6.45;5.88;;;28.80;64.90;;;;;;6228687;28;20204;-75
2021/09/26 13:40:24;;;;;;;8.43;6.50;;;28.90;65.60;;;;;;6246941;28;20200;-73
2021/09/26 13:43:32;;;;;;;7.28;6.57;;;29.30;64.10;;;;;;6244988;28;20196;-75
2021/09/26 13:46:34;;;;;;;7.38;6.78;;;29.40;61.60;;;;;;6243679;28;20208;-75
2021/09/26 13:49:37;;;;;;;6.93;6.22;;;29.50;60.80;;;;;;6244051;28;20192;-75
2021/09/26 13:52:39;;;;;;;7.20;6.50;;;29.60;60.90;;;;;;6243827;28;20180;-75
2021/09/26 13:55:41;;;;;;;10.05;6.53;;;29.30;60.30;;;;;;6228948;28;20557;-75
2021/09/26 13:58:43;;;;;;;6.97;6.10;;;28.40;62.60;;;;;;6247060;28;20203;-74
2021/09/26 14:01:46;;;;;;;6.85;6.15;;;27.10;66.20;;;;;;6215109;28;20229;-74
2021/09/26 14:04:49;;;;;;;7.03;6.40;;;26.40;69.20;;;;;;6219913;28;20622;-74
2021/09/26 14:07:51;;;;;;;7.82;6.47;;;25.80;70.80;;;;;;6222802;28;20579;-74
2021/09/26 14:10:55;;;;;;;6.95;6.25;;;25.60;72.50;;;;;;6223898;28;20199;-75
2021/09/26 14:13:57;;;;;;;8.77;7.18;;;25.50;73.60;;;;;;6223469;28;20197;-74
2021/09/26 14:17:00;;;;;;;7.05;6.35;;;25.30;73.90;;;;;;6221715;28;20255;-75
2021/09/26 14:20:06;;;;;;;6.38;5.47;;;24.90;75.60;;;;;;6221128;28;20200;-74
2021/09/26 14:23:09;;;;;;;6.75;5.97;;;24.60;78.20;;;;;;6222226;28;20180;-74
2021/09/26 14:26:13;;;;;;;6.03;5.50;;;24.30;80.40;;;;;;6223823;28;20610;-74
2021/09/26 14:29:15;;;;;;;7.67;6.97;;;24.00;81.80;;;;;;6223624;28;20196;-74
2021/09/26 14:32:18;;;;;;;6.83;6.13;;;23.80;81.90;;;;;;6230619;28;20202;-75
2021/09/26 14:35:20;;;;;;;8.73;6.30;;;23.60;83.50;;;;;;6221856;28;20685;-74
2021/09/26 14:38:22;;;;;;;6.03;5.50;;;23.40;84.70;;;;;;6221809;28;20195;-74
2021/09/26 14:41:26;;;;;;;7.37;5.60;;;23.20;86.40;;;;;;6236430;28;20275;-74
2021/09/26 14:44:28;;;;;;;5.60;5.10;;;23.10;87.20;;;;;;6220997;28;20193;-75
2021/09/26 14:47:30;;;;;;;5.73;5.23;;;23.00;88.80;;;;;;6220604;28;20684;-74
2021/09/26 14:50:34;;;;;;;6.23;5.63;;;22.90;89.60;;;;;;6221226;28;20196;-75
2021/09/26 14:53:37;;;;;;;6.20;5.70;;;22.70;90.00;;;;;;6220808;28;20185;-74
2021/09/26 14:56:41;;;;;;;6.43;5.83;;;22.70;90.40;;;;;;6213190;28;20197;-73
2021/09/26 14:59:43;;;;;;;7.07;6.37;;;22.70;90.70;;;;;;6216941;28;20599;-73
2021/09/26 15:02:46;;;;;;;6.80;6.10;;;22.60;91.10;;;;;;6225487;28;20324;-74
2021/09/26 15:05:48;;;;;;;6.67;5.80;;;22.40;91.70;;;;;;6222866;28;20740;-73
2021/09/26 15:08:50;;;;;;;6.30;5.80;;;22.30;92.30;;;;;;6221275;28;20249;-74
2021/09/26 15:11:52;;;;;;;6.17;5.57;;;22.20;92.80;;;;;;6222984;28;20472;-73
2021/09/26 15:14:55;;;;;;;6.10;5.50;;;22.10;93.00;;;;;;6222784;28;20640;-74
2021/09/26 15:17:57;;;;;;;5.60;5.10;;;22.00;93.10;;;;;;6221063;28;20537;-75
2021/09/26 15:21:01;;;;;;;6.50;5.33;;;21.90;93.00;;;;;;6222676;28;20224;-74
2021/09/26 15:24:05;;;;;;;5.30;4.80;;;21.80;92.90;;;;;;6222306;28;20613;-74
2021/09/26 15:27:07;;;;;;;5.93;5.43;;;21.70;93.20;;;;;;6220774;28;20209;-74
2021/09/26 15:30:11;;;;;;;5.83;5.33;;;21.60;93.50;;;;;;6235767;28;20195;-74
2021/09/26 15:33:13;;;;;;;6.53;5.87;;;21.40;94.70;;;;;;6217140;28;20262;-74
2021/09/26 15:36:18;;;;;;;5.63;5.13;;;21.30;95.10;;;;;;6222180;28;20204;-74
2021/09/26 15:39:20;;;;;;;5.97;5.37;;;21.10;95.90;;;;;;6221002;28;20324;-73
2021/09/26 15:42:23;;;;;;;7.80;5.70;;;21.00;96.40;;;;;;6222395;28;20188;-74
2021/09/26 15:45:36;;;;;;;4.87;4.47;;;20.90;96.90;;;;;;6220725;28;20203;-73
2021/09/26 15:48:39;;;;;;;5.80;5.03;;;20.70;97.30;;;;;;6221754;28;20601;-73
2021/09/26 15:51:42;;;;;;;5.60;5.10;;;20.50;98.20;;;;;;6221830;28;20181;-74
2021/09/26 15:54:44;;;;;;;5.97;5.37;;;20.40;98.90;;;;;;6212093;28;20201;-73